In Rescue
 
Open Full Screen Window  High Contrast Mode
Wind Gusting 00 knots
05
September 21, 2019 9:57 AM EDT
Weather Information
Wind Direction
  210 °
Wind Speed
  05 kt (6 mph)
Wind Gust
  00 kt (0 mph)
Altimeter
30.14 in
Visibility
10 SM
Temperature
25° C
77° F
Dewpoint
22° C
72° F
Humidity
83%
Sky Condition
Clear
VFR

METAR KLWA 211357Z AUTO 21005KT 10SM CLR 25/22 A3014 RMK AO2 T02470221

FAA Disclaimer: The data displayed is for advisory purposes only and is not to be used for flight planning or operations.